Time;durP1;ratioP1;P1;durP2;ratioP2;P2;SDS_P1;SDS_P2;PMS_P1;PMS_P2;Temp;Humidity;BMP_temperature;BMP_pressure;BME280_temperature;BME280_humidity;BME280_pressure;Samples;Min_cycle;Max_cycle;Signal;HPM_P1;HPM_P2
2022/08/24 00:00:51;;;;;;;17.67;11.40;;;;;;;20.91;73.82;101624.19;4918704;29;20048;-82
2022/08/24 00:03:16;;;;;;;16.20;11.27;;;;;;;20.91;73.96;101624.19;4914328;29;20508;-82
2022/08/24 00:05:42;;;;;;;18.73;10.48;;;;;;;20.86;73.64;101628.97;4905786;29;20131;-82
2022/08/24 00:08:07;;;;;;;16.80;11.30;;;;;;;20.85;75.44;101623.66;4892172;29;20035;-83
2022/08/24 00:10:42;;;;;;;16.17;12.57;;;;;;;20.75;75.61;101629.53;4900157;29;20123;-82
2022/08/24 00:13:08;;;;;;;14.88;11.38;;;;;;;20.76;74.95;101625.00;4896385;29;20075;-83
2022/08/24 00:15:33;;;;;;;13.10;11.48;;;;;;;20.74;76.00;101635.84;4909682;29;20592;-83
2022/08/24 00:17:59;;;;;;;13.57;11.70;;;;;;;20.66;74.11;101632.69;4920297;29;20051;-82
2022/08/24 00:20:25;;;;;;;12.38;10.35;;;;;;;20.62;73.82;101636.47;4902459;29;20032;-83
2022/08/24 00:22:51;;;;;;;16.52;10.57;;;;;;;20.57;74.63;101642.13;4924241;29;20052;-83
2022/08/24 00:25:18;;;;;;;17.25;12.05;;;;;;;20.49;74.57;101640.72;4921788;29;20381;-82
2022/08/24 00:27:44;;;;;;;17.13;11.90;;;;;;;20.40;75.91;101637.56;4919786;29;20091;-83
2022/08/24 00:30:14;;;;;;;14.80;11.43;;;;;;;20.34;76.41;101639.69;4900007;29;20040;-82
2022/08/24 00:32:44;;;;;;;19.33;12.43;;;;;;;20.31;75.21;101640.69;4920128;29;20114;-83
2022/08/24 00:35:11;;;;;;;15.32;12.13;;;;;;;20.30;75.63;101633.59;4907179;29;20036;-83
2022/08/24 00:37:37;;;;;;;18.23;12.32;;;;;;;20.25;75.46;101641.03;4921315;29;20514;-83
2022/08/24 00:40:10;;;;;;;23.27;13.05;;;;;;;20.22;78.70;101640.28;4919150;29;20036;-83
2022/08/24 00:42:37;;;;;;;18.30;12.50;;;;;;;20.18;78.25;101645.81;4899483;29;20036;-83
2022/08/24 00:45:05;;;;;;;14.57;12.40;;;;;;;20.18;77.72;101645.81;4904859;29;20391;-83
2022/08/24 00:47:43;;;;;;;19.23;13.70;;;;;;;20.22;76.30;101648.34;4921812;29;20452;-83
2022/08/24 00:50:18;;;;;;;17.17;13.48;;;;;;;20.23;77.09;101650.09;4897382;29;20126;-83
2022/08/24 00:52:58;;;;;;;21.45;14.40;;;;;;;20.19;77.64;101646.69;4894251;29;20051;-83
2022/08/24 00:55:42;;;;;;;20.52;14.43;;;;;;;20.20;77.07;101643.03;4908971;29;20127;-83
2022/08/24 00:58:14;;;;;;;16.58;13.80;;;;;;;20.15;77.02;101648.66;4914236;29;20473;-83
2022/08/24 01:00:44;;;;;;;15.48;12.85;;;;;;;20.12;76.79;101656.00;4921074;29;20548;-83
2022/08/24 01:03:10;;;;;;;17.63;12.93;;;;;;;20.09;76.74;101651.66;4886627;29;20028;-83
2022/08/24 01:05:37;;;;;;;22.30;14.00;;;;;;;20.03;77.31;101656.44;4899338;29;20420;-83
2022/08/24 01:08:06;;;;;;;18.67;14.20;;;;;;;19.95;77.41;101652.34;4919377;29;20118;-83
2022/08/24 01:10:36;;;;;;;16.77;13.23;;;;;;;19.92;76.61;101651.59;4901254;29;20039;-83
2022/08/24 01:13:05;;;;;;;16.17;14.48;;;;;;;19.87;78.60;101643.75;4921440;29;20027;-83
2022/08/24 01:15:41;;;;;;;18.10;13.85;;;;;;;19.85;77.85;101642.94;4896597;29;20047;-83
2022/08/24 01:21:05;;;;;;;22.38;15.80;;;;;;;19.77;79.33;101640.63;4900673;29;20079;-83
2022/08/24 01:23:38;;;;;;;21.42;14.68;;;;;;;19.71;78.79;101640.94;4895472;29;20053;-83
2022/08/24 01:26:06;;;;;;;18.85;14.50;;;;;;;19.70;78.31;101651.75;4883300;29;20044;-83
2022/08/24 01:28:33;;;;;;;19.60;16.52;;;;;;;19.66;80.35;101650.13;4901308;29;20039;-83
2022/08/24 01:30:58;;;;;;;19.27;16.48;;;;;;;19.63;81.12;101650.25;4911079;29;20128;-83
2022/08/24 01:33:30;;;;;;;20.98;16.05;;;;;;;19.59;80.64;101646.00;4897311;29;20433;-83
2022/08/24 01:36:03;;;;;;;18.65;15.27;;;;;;;19.55;79.35;101647.94;4905810;29;20054;-83
2022/08/24 01:38:31;;;;;;;24.75;17.58;;;;;;;19.54;78.76;101639.00;4895077;29;20061;-75
2022/08/24 01:41:01;;;;;;;22.42;17.05;;;;;;;19.52;79.63;101638.19;4877247;29;20060;-75
2022/08/24 01:43:27;;;;;;;22.48;18.73;;;;;;;19.49;80.36;101638.34;4892742;29;20064;-75
2022/08/24 01:45:53;;;;;;;20.90;16.90;;;;;;;19.43;80.82;101638.63;4894855;29;20040;-75
2022/08/24 01:48:19;;;;;;;27.08;19.23;;;;;;;19.38;81.98;101640.63;4894709;29;20029;-75
2022/08/24 01:50:45;;;;;;;20.02;17.20;;;;;;;19.36;80.22;101642.53;4877690;29;20041;-75
2022/08/24 01:53:11;;;;;;;22.38;16.80;;;;;;;19.34;80.67;101637.25;4893103;29;20125;-75
2022/08/24 01:55:38;;;;;;;20.38;16.13;;;;;;;19.31;79.24;101632.03;4879238;29;20413;-75
2022/08/24 01:58:04;;;;;;;18.73;16.13;;;;;;;19.29;81.44;101639.25;4907176;29;20502;-75
2022/08/24 02:00:31;;;;;;;22.25;18.05;;;;;;;19.29;82.68;101633.91;4894036;29;20047;-75
2022/08/24 02:02:56;;;;;;;24.13;17.45;;;;;;;19.30;82.58;101641.00;4894989;29;20066;-75
2022/08/24 02:05:23;;;;;;;23.48;17.05;;;;;;;19.26;81.67;101644.78;4884089;29;20136;-75
2022/08/24 02:07:50;;;;;;;18.17;14.18;;;;;;;19.22;80.11;101640.47;4905309;29;20461;-76
2022/08/24 02:10:17;;;;;;;23.60;17.10;;;;;;;19.20;81.30;101633.44;4894926;29;20035;-75
2022/08/24 02:12:56;;;;;;;17.58;15.73;;;;;;;19.18;80.58;101633.50;4895122;29;20140;-75
2022/08/24 02:15:38;;;;;;;19.23;16.38;;;;;;;19.18;81.13;101638.88;4894768;29;20448;-75
2022/08/24 02:18:07;;;;;;;19.48;16.02;;;;;;;19.13;82.33;101641.75;4894996;29;20033;-75
2022/08/24 02:20:35;;;;;;;20.10;15.90;;;;;;;19.08;83.42;101633.03;4864208;29;20048;-75
2022/08/24 02:23:06;;;;;;;17.90;14.43;;;;;;;19.12;81.44;101634.66;4895723;29;20085;-75
2022/08/24 02:25:32;;;;;;;19.05;14.57;;;;;;;19.07;83.12;101647.41;4867541;29;20037;-75
2022/08/24 02:27:59;;;;;;;20.13;14.73;;;;;;;19.05;81.21;101653.78;4882917;29;20039;-76
2022/08/24 02:30:27;;;;;;;21.70;15.57;;;;;;;19.00;82.17;101653.13;4888212;29;20033;-75
2022/08/24 02:32:53;;;;;;;16.40;13.38;;;;;;;18.96;80.75;101663.09;4892372;29;20044;-75
2022/08/24 02:35:21;;;;;;;18.63;14.25;;;;;;;18.98;82.56;101657.69;4913929;29;20449;-76
2022/08/24 02:37:47;;;;;;;15.25;13.43;;;;;;;18.98;81.78;101665.75;4898111;29;20041;-76
2022/08/24 02:40:14;;;;;;;24.70;14.70;;;;;;;18.97;83.59;101667.56;4902930;29;20077;-76
2022/08/24 02:42:40;;;;;;;14.73;13.18;;;;;;;18.97;82.46;101666.69;4898045;29;20033;-75
2022/08/24 02:45:08;;;;;;;17.95;12.00;;;;;;;18.91;80.90;101662.44;4898030;29;20036;-76
2022/08/24 02:47:34;;;;;;;14.32;12.02;;;;;;;18.88;80.04;101662.59;4905656;29;20060;-76
2022/08/24 02:50:01;;;;;;;21.70;13.10;;;;;;;18.86;82.21;101661.78;4896446;29;20100;-76
2022/08/24 02:52:27;;;;;;;16.98;14.38;;;;;;;18.84;82.02;101653.81;4900568;29;20033;-75
2022/08/24 02:54:52;;;;;;;16.02;12.50;;;;;;;18.80;82.58;101652.19;4897847;29;20043;-76
2022/08/24 02:57:18;;;;;;;15.95;12.95;;;;;;;18.80;82.67;101654.88;4894116;29;20405;-75
2022/08/24 02:59:44;;;;;;;16.40;12.02;;;;;;;18.75;81.13;101654.16;4897756;29;20066;-75
2022/08/24 03:02:09;;;;;;;15.32;11.65;;;;;;;18.72;80.91;101648.94;4897871;29;20036;-75
2022/08/24 03:04:35;;;;;;;15.98;13.35;;;;;;;18.66;81.28;101651.88;4882186;29;20527;-75
2022/08/24 03:07:02;;;;;;;16.65;13.45;;;;;;;18.63;83.04;101658.25;4901781;29;20051;-75
2022/08/24 03:09:28;;;;;;;17.73;15.05;;;;;;;18.61;85.02;101656.56;4897463;29;20062;-75
2022/08/24 03:11:56;;;;;;;19.55;15.40;;;;;;;18.58;83.77;101646.84;4905968;29;20053;-76
2022/08/24 03:14:22;;;;;;;16.92;14.68;;;;;;;18.59;83.06;101645.88;4869022;29;20068;-75
2022/08/24 03:16:47;;;;;;;19.58;15.63;;;;;;;18.60;82.77;101647.66;4897786;29;20035;-75
2022/08/24 03:19:14;;;;;;;19.00;16.40;;;;;;;18.57;84.71;101647.78;4897329;29;20068;-75
2022/08/24 03:21:41;;;;;;;19.63;15.18;;;;;;;18.57;83.05;101655.84;4897331;29;20489;-75
2022/08/24 03:24:07;;;;;;;22.10;16.42;;;;;;;18.52;83.59;101654.25;4881616;29;20053;-76
2022/08/24 03:26:33;;;;;;;20.70;16.98;;;;;;;18.47;84.91;101646.41;4881984;29;20680;-76
2022/08/24 03:28:58;;;;;;;17.90;14.65;;;;;;;18.42;82.16;101641.25;4894273;29;20051;-76
2022/08/24 03:31:25;;;;;;;17.88;14.15;;;;;;;18.37;81.65;101647.72;4912829;29;20493;-76
2022/08/24 03:33:50;;;;;;;20.60;16.95;;;;;;;18.34;84.47;101650.53;4896705;29;20040;-76
2022/08/24 03:36:16;;;;;;;21.17;15.30;;;;;;;18.28;85.04;101640.94;4897212;29;20117;-76
2022/08/24 03:38:42;;;;;;;18.23;15.77;;;;;;;18.24;83.49;101647.38;4881286;29;20033;-76
2022/08/24 03:41:08;;;;;;;21.13;14.88;;;;;;;18.22;83.04;101646.56;4881655;29;20045;-75
2022/08/24 03:43:45;;;;;;;20.88;16.55;;;;;;;18.21;84.58;101648.38;4896957;29;20040;-76
2022/08/24 03:46:35;;;;;;;23.92;18.35;;;;;;;18.20;86.89;101649.31;4881551;29;20040;-75
2022/08/24 03:49:04;;;;;;;23.00;18.50;;;;;;;18.15;87.85;101653.09;4896821;29;20096;-76
2022/08/24 03:51:30;;;;;;;23.33;17.90;;;;;;;18.09;87.47;101659.59;4895962;29;20080;-76
2022/08/24 03:53:57;;;;;;;21.00;17.85;;;;;;;18.06;87.32;101659.72;4896657;29;20040;-75
2022/08/24 03:56:26;;;;;;;20.02;17.10;;;;;;;18.09;86.99;101658.72;4896559;29;20493;-75
2022/08/24 03:58:53;;;;;;;22.13;18.02;;;;;;;18.12;87.21;101653.22;4896058;29;20033;-75
2022/08/24 04:01:21;;;;;;;25.02;18.83;;;;;;;18.13;86.93;101658.53;4881070;29;20073;-76
2022/08/24 04:03:48;;;;;;;24.35;17.58;;;;;;;18.14;84.76;101657.59;4895465;29;20408;-75
2022/08/24 04:06:17;;;;;;;20.58;17.38;;;;;;;18.12;83.82;101659.44;4879053;29;20485;-75
2022/08/24 04:08:43;;;;;;;18.98;17.00;;;;;;;18.09;84.37;101656.91;4911704;29;20024;-75
2022/08/24 04:11:16;;;;;;;25.83;19.30;;;;;;;18.03;85.56;101655.34;4896118;29;20040;-76
2022/08/24 04:13:44;;;;;;;22.40;17.05;;;;;;;18.00;83.79;101646.53;4896036;29;20029;-76
2022/08/24 04:16:15;;;;;;;20.02;16.42;;;;;;;17.97;83.28;101658.25;4895886;29;20029;-76
2022/08/24 04:18:42;;;;;;;21.60;17.67;;;;;;;17.97;84.20;101660.06;4895902;29;20134;-75
2022/08/24 04:21:24;;;;;;;23.02;18.65;;;;;;;18.00;84.18;101666.19;4880379;29;20045;-76
2022/08/24 04:23:51;;;;;;;22.60;17.05;;;;;;;17.97;84.66;101662.75;4895324;29;20063;-75
2022/08/24 04:26:20;;;;;;;24.35;18.00;;;;;;;17.97;84.66;101665.44;4897114;29;20039;-75
2022/08/24 04:28:45;;;;;;;20.15;17.30;;;;;;;17.95;84.11;101667.28;4896631;29;20489;-76
2022/08/24 04:31:13;;;;;;;21.27;18.38;;;;;;;17.92;85.30;101670.09;4880233;29;20032;-76
2022/08/24 04:33:42;;;;;;;22.60;17.75;;;;;;;17.89;84.24;101668.41;4880105;29;20092;-75
2022/08/24 04:36:09;;;;;;;20.77;16.58;;;;;;;17.86;84.23;101663.19;4864448;29;20044;-75
2022/08/24 04:38:37;;;;;;;23.60;18.00;;;;;;;17.83;86.13;101663.31;4895787;29;20112;-75
2022/08/24 04:41:21;;;;;;;21.85;18.88;;;;;;;17.82;87.14;101666.91;4893925;29;20029;-75
2022/08/24 04:43:48;;;;;;;20.88;17.27;;;;;;;17.82;86.68;101666.91;4895414;29;20044;-76
2022/08/24 04:46:17;;;;;;;24.27;17.73;;;;;;;17.82;85.98;101673.13;4896126;29;20029;-75
2022/08/24 04:48:45;;;;;;;20.55;17.42;;;;;;;17.80;86.04;101676.81;4895365;29;20020;-76
2022/08/24 04:51:13;;;;;;;24.17;16.60;;;;;;;17.80;86.45;101676.81;4905790;29;20100;-75
2022/08/24 04:53:39;;;;;;;19.45;16.38;;;;;;;17.80;85.36;101674.13;4894470;29;20040;-76
2022/08/24 04:56:17;;;;;;;19.77;15.80;;;;;;;17.81;86.18;101676.75;4877598;29;20036;-76
2022/08/24 04:58:44;;;;;;;16.73;14.88;;;;;;;17.79;85.52;101677.72;4892554;29;20036;-76
2022/08/24 05:01:15;;;;;;;21.55;16.20;;;;;;;17.79;86.48;101675.91;4895170;29;20131;-76
2022/08/24 05:03:44;;;;;;;21.85;15.73;;;;;;;17.80;85.71;101676.81;4879411;29;20056;-76
2022/08/24 05:06:13;;;;;;;17.55;14.93;;;;;;;17.82;85.41;101683.84;4894922;29;20032;-76
2022/08/24 05:08:39;;;;;;;18.30;15.55;;;;;;;17.83;86.24;101682.94;4894678;29;20044;-76
2022/08/24 05:11:07;;;;;;;17.23;15.40;;;;;;;17.89;85.48;101684.50;4894793;29;20111;-76
2022/08/24 05:13:34;;;;;;;18.60;15.60;;;;;;;17.93;85.25;101682.59;4876854;29;20044;-76
2022/08/24 05:16:04;;;;;;;18.48;15.93;;;;;;;17.95;85.29;101686.06;4895109;29;20036;-76
2022/08/24 05:18:32;;;;;;;19.88;16.48;;;;;;;17.98;85.65;101681.47;4893968;29;20044;-76
2022/08/24 05:20:58;;;;;;;20.17;16.77;;;;;;;18.02;86.61;101687.56;4879620;29;20076;-76
2022/08/24 05:23:25;;;;;;;19.20;15.40;;;;;;;18.06;85.67;101683.84;4912671;29;20076;-76
2022/08/24 05:25:51;;;;;;;20.70;16.58;;;;;;;18.09;86.01;101685.53;4882826;29;20047;-76
2022/08/24 05:28:17;;;;;;;18.33;15.95;;;;;;;18.11;86.32;101692.56;4879896;29;20477;-76
2022/08/24 05:30:43;;;;;;;18.27;16.38;;;;;;;18.15;85.92;101695.97;4896298;29;20404;-76
2022/08/24 05:33:08;;;;;;;19.35;15.80;;;;;;;18.19;85.78;101689.56;4898646;29;20036;-76
2022/08/24 05:35:38;;;;;;;24.35;16.90;;;;;;;18.24;86.15;101695.63;4882948;29;20119;-76
2022/08/24 05:38:04;;;;;;;25.10;17.80;;;;;;;18.30;86.63;101699.84;4882511;29;20449;-76
2022/08/24 05:40:35;;;;;;;23.35;18.08;;;;;;;18.38;86.89;101701.31;4869068;29;20055;-76
2022/08/24 05:43:01;;;;;;;19.05;16.98;;;;;;;18.43;87.08;101699.31;4913776;29;20043;-76
2022/08/24 05:45:27;;;;;;;18.40;16.42;;;;;;;18.48;85.87;101697.31;4867165;29;20040;-85
2022/08/24 05:47:54;;;;;;;20.83;17.00;;;;;;;18.58;85.79;101694.25;4899127;29;20072;-85
2022/08/24 05:50:37;;;;;;;20.25;17.10;;;;;;;18.66;85.05;101694.78;4901355;29;20546;-84
2022/08/24 05:53:03;;;;;;;22.35;17.65;;;;;;;18.75;84.69;101702.47;4919313;29;20036;-85
2022/08/24 05:55:29;;;;;;;19.08;16.50;;;;;;;18.82;84.51;101692.38;4882705;29;20060;-84
2022/08/24 05:57:55;;;;;;;22.55;17.70;;;;;;;18.90;84.39;101696.47;4885973;29;20488;-85
2022/08/24 06:00:24;;;;;;;22.67;17.98;;;;;;;18.98;84.23;101701.50;4869435;29;20033;-85
2022/08/24 06:02:51;;;;;;;20.40;17.45;;;;;;;19.06;85.47;101699.34;4910623;29;20040;-85
2022/08/24 06:05:18;;;;;;;21.35;18.73;;;;;;;19.17;85.07;101698.03;4900710;29;20040;-85
2022/08/24 06:07:44;;;;;;;20.05;16.95;;;;;;;19.24;83.32;101703.06;4902835;29;20040;-85
2022/08/24 06:10:10;;;;;;;23.02;17.38;;;;;;;19.34;84.96;101706.19;4887135;29;20036;-85
2022/08/24 06:12:37;;;;;;;24.60;18.23;;;;;;;19.42;84.88;101712.09;4902710;29;20046;-85
2022/08/24 06:15:04;;;;;;;21.73;17.73;;;;;;;19.50;85.25;101715.28;4902493;29;20044;-85
2022/08/24 06:17:30;;;;;;;20.75;17.90;;;;;;;19.60;84.83;101715.75;4901694;29;20047;-85
2022/08/24 06:19:56;;;;;;;23.08;19.10;;;;;;;19.69;85.65;101712.69;4887223;29;20090;-85
2022/08/24 06:22:22;;;;;;;24.50;20.55;;;;;;;19.77;86.30;101715.00;4901226;29;20060;-85
2022/08/24 06:27:49;;;;;;;30.67;22.63;;;;;;;20.00;85.82;101719.28;4808048;29;20106;-76
2022/08/24 06:30:14;;;;;;;33.85;25.58;;;;;;;20.08;86.15;101721.63;4856606;29;20420;-76
2022/08/24 06:33:02;;;;;;;39.33;26.58;;;;;;;20.19;85.74;101722.84;4901608;29;20055;-76
2022/08/24 06:35:38;;;;;;;32.78;27.83;;;;;;;20.30;86.01;101725.03;4901768;29;20082;-76
2022/08/24 06:38:05;;;;;;;37.95;26.25;;;;;;;20.40;84.68;101725.47;4882907;29;20041;-76
2022/08/24 06:40:30;;;;;;;33.67;26.83;;;;;;;20.48;85.67;101727.78;4916639;29;20024;-76
2022/08/24 06:43:02;;;;;;;34.00;26.00;;;;;;;20.58;85.11;101729.97;4901611;29;20094;-76
2022/08/24 06:45:36;;;;;;;30.80;25.75;;;;;;;20.71;84.70;101734.72;4900986;29;20032;-76
2022/08/24 06:48:03;;;;;;;32.65;25.10;;;;;;;20.80;83.72;101736.97;4885831;29;20051;-76
2022/08/24 06:50:28;;;;;;;32.72;25.63;;;;;;;20.90;84.61;101732.00;4899779;29;20135;-76
2022/08/24 06:52:55;;;;;;;31.88;26.58;;;;;;;20.99;84.52;101729.69;4901316;29;20087;-76
2022/08/24 06:55:22;;;;;;;32.22;25.92;;;;;;;21.12;83.88;101737.16;4882692;29;20048;-77
2022/08/24 06:57:48;;;;;;;33.65;25.90;;;;;;;21.22;83.74;101728.50;4900694;29;20149;-76
2022/08/24 07:00:14;;;;;;;39.42;26.95;;;;;;;21.35;84.16;101738.63;4901161;29;20054;-76
2022/08/24 07:02:40;;;;;;;30.90;23.50;;;;;;;21.44;81.43;101740.88;4885575;29;20390;-76
2022/08/24 07:05:06;;;;;;;32.30;25.65;;;;;;;21.54;82.49;101742.13;4916416;29;20143;-77
2022/08/24 07:07:50;;;;;;;23.50;18.00;;;;;;;21.68;78.77;101749.44;4890523;29;20082;-77
2022/08/24 07:10:17;;;;;;;29.60;23.38;;;;;;;21.82;81.52;101746.88;4900046;29;20199;-77
2022/08/24 07:12:42;;;;;;;30.80;21.85;;;;;;;21.92;79.35;101751.78;4917861;29;20517;-77
2022/08/24 07:15:08;;;;;;;27.42;18.83;;;;;;;22.01;78.41;101746.75;4900716;29;20069;-77
2022/08/24 07:17:33;;;;;;;28.90;18.92;;;;;;;22.09;77.25;101749.88;4884861;29;20385;-76
2022/08/24 07:19:59;;;;;;;27.50;18.25;;;;;;;22.17;75.04;101744.03;4868877;29;20036;-76
2022/08/24 07:22:51;;;;;;;25.58;19.08;;;;;;;22.28;76.27;101752.44;4881371;29;20505;-76
2022/08/24 07:25:16;;;;;;;31.80;21.88;;;;;;;22.37;76.67;101745.63;4866056;29;20047;-76
2022/08/24 07:27:42;;;;;;;29.05;20.05;;;;;;;22.47;75.53;101748.69;4909381;29;20040;-76
2022/08/24 07:30:08;;;;;;;32.55;21.10;;;;;;;22.57;75.32;101749.03;4901226;29;20039;-77
2022/08/24 07:32:36;;;;;;;28.63;20.08;;;;;;;22.68;75.40;101747.44;4885161;29;20432;-77
2022/08/24 07:35:02;;;;;;;22.65;18.15;;;;;;;22.80;74.01;101744.97;4899839;29;20077;-76
2022/08/24 07:37:27;;;;;;;23.02;16.95;;;;;;;22.92;72.73;101737.03;4886984;29;20034;-77
2022/08/24 07:39:53;;;;;;;24.70;18.67;;;;;;;23.02;70.33;101737.41;4884248;29;20039;-77
2022/08/24 07:42:19;;;;;;;31.23;18.73;;;;;;;23.12;71.15;101743.09;4866544;29;20040;-77
2022/08/24 07:44:45;;;;;;;33.40;17.55;;;;;;;23.25;70.44;101743.22;4909539;29;20393;-77
2022/08/24 07:47:11;;;;;;;22.02;15.95;;;;;;;23.34;69.57;101738.13;4884549;29;20460;-77
2022/08/24 07:49:36;;;;;;;24.35;16.38;;;;;;;23.46;68.84;101747.28;4868857;29;20032;-77
2022/08/24 07:52:03;;;;;;;24.15;15.65;;;;;;;23.57;68.31;101746.66;4888196;29;20032;-77
2022/08/24 07:54:29;;;;;;;24.67;15.32;;;;;;;23.69;68.09;101742.28;4909353;29;20032;-77
2022/08/24 07:56:58;;;;;;;27.38;16.65;;;;;;;23.79;68.23;101740.81;4885940;29;20047;-83
2022/08/24 07:59:23;;;;;;;22.98;15.73;;;;;;;23.91;67.81;101737.31;4899616;29;20472;-83
2022/08/24 08:01:51;;;;;;;32.22;16.08;;;;;;;24.01;65.72;101740.28;4881642;29;20100;-83
2022/08/24 08:04:23;;;;;;;23.33;14.23;;;;;;;24.14;66.38;101745.78;4911808;29;20040;-84
2022/08/24 08:06:53;;;;;;;29.45;16.20;;;;;;;24.21;65.77;101747.13;4884867;29;20080;-84
2022/08/24 08:09:19;;;;;;;25.07;13.87;;;;;;;24.32;64.83;101751.84;4882707;29;20052;-84
2022/08/24 08:11:45;;;;;;;23.60;15.50;;;;;;;24.40;64.12;101746.78;4899728;29;20359;-77
2022/08/24 08:14:11;;;;;;;24.27;13.98;;;;;;;24.56;65.77;101752.09;4883836;29;20131;-77
2022/08/24 08:16:39;;;;;;;22.05;13.60;;;;;;;24.67;64.54;101750.38;4899728;29;20091;-77
2022/08/24 08:19:05;;;;;;;20.55;12.90;;;;;;;24.76;62.91;101753.47;4883793;29;20071;-78
2022/08/24 08:24:16;;;;;;;23.00;12.02;;;;;;;24.98;61.39;101752.88;4885827;29;20574;-77
2022/08/24 08:26:49;;;;;;;15.75;9.90;;;;;;;25.12;62.06;101755.50;4884397;29;20036;-77
2022/08/24 08:29:23;;;;;;;15.02;10.15;;;;;;;25.26;60.96;101754.59;4884579;29;20036;-77
2022/08/24 08:31:48;;;;;;;19.70;11.00;;;;;;;25.34;59.80;101757.63;4899580;29;20460;-77
2022/08/24 08:34:15;;;;;;;22.27;10.52;;;;;;;25.43;59.50;101751.56;4899318;29;20040;-77
2022/08/24 08:36:41;;;;;;;15.18;10.30;;;;;;;25.59;58.67;101755.91;4899246;29;20039;-77
2022/08/24 08:39:10;;;;;;;19.05;9.95;;;;;;;25.72;58.81;101759.50;4883687;29;20038;-77
2022/08/24 08:41:44;;;;;;;18.58;8.82;;;;;;;25.93;59.46;101751.66;4899263;29;20038;-76
2022/08/24 08:44:35;;;;;;;17.27;8.52;;;;;;;26.17;58.58;101757.16;4884499;29;20039;-77
2022/08/24 08:47:16;;;;;;;18.80;8.25;;;;;;;26.33;57.51;101751.47;4870923;29;20044;-77
2022/08/24 08:50:01;;;;;;;17.55;7.40;;;;;;;26.51;57.42;101750.09;4914720;29;20040;-77
2022/08/24 08:52:47;;;;;;;15.68;7.70;;;;;;;26.72;57.62;101754.94;4898197;29;20032;-77
2022/08/24 08:55:22;;;;;;;14.93;7.68;;;;;;;26.85;56.48;101752.13;4898910;29;20028;-77
2022/08/24 08:58:07;;;;;;;16.33;6.78;;;;;;;26.99;56.78;101762.81;4899070;29;20040;-77
2022/08/24 09:01:00;;;;;;;13.30;6.68;;;;;;;27.13;55.48;101754.47;4886372;29;20484;-78
2022/08/24 09:04:03;;;;;;;14.57;5.68;;;;;;;27.35;55.07;101756.41;4893477;29;20028;-78
2022/08/24 09:06:56;;;;;;;9.93;4.28;;;;;;;27.59;54.50;101755.44;4901065;29;20119;-78
2022/08/24 09:10:08;;;;;;;11.90;4.70;;;;;;;27.73;54.03;101754.38;4905818;29;20116;-78
2022/08/24 09:13:01;;;;;;;8.07;4.10;;;;;;;27.86;51.55;101760.56;4881092;29;20036;-78
2022/08/24 09:16:05;;;;;;;8.25;3.65;;;;;;;28.00;52.73;101762.19;4910259;29;20600;-77
2022/08/24 09:18:46;;;;;;;9.75;4.00;;;;;;;28.01;48.58;101751.16;4874716;29;20116;-78
2022/08/24 09:21:27;;;;;;;5.68;2.53;;;;;;;28.32;51.17;101761.41;4904213;29;20112;-78
2022/08/24 09:24:22;;;;;;;6.85;2.50;;;;;;;28.56;50.36;101759.41;4894434;29;20067;-77
2022/08/24 09:31:18;;;;;;;10.73;4.80;;;;;;;28.73;49.36;101749.78;4911275;29;20167;-78
2022/08/24 09:34:04;;;;;;;13.90;5.40;;;;;;;28.75;49.15;101760.56;4894187;29;20040;-77
2022/08/24 09:36:58;;;;;;;13.98;5.03;;;;;;;28.85;47.75;101756.06;4909484;29;20106;-78
2022/08/24 09:39:53;;;;;;;11.48;4.53;;;;;;;28.90;47.83;101762.00;4903296;29;20044;-77
2022/08/24 09:42:41;;;;;;;9.00;3.60;;;;;;;28.99;48.18;101753.03;4908548;29;20032;-78
2022/08/24 09:45:32;;;;;;;7.30;4.53;;;;;;;28.89;48.36;101754.81;4910360;29;20099;-78
2022/08/24 09:48:03;;;;;;;10.68;4.55;;;;;;;28.72;47.63;101764.41;4879512;29;20113;-77
2022/08/24 09:50:38;;;;;;;11.13;5.03;;;;;;;28.65;47.41;101763.19;4896063;29;20062;-77
2022/08/24 09:53:21;;;;;;;8.70;4.60;;;;;;;28.74;46.96;101759.72;4911740;29;20055;-77
2022/08/24 09:56:18;;;;;;;11.20;4.63;;;;;;;28.78;47.87;101757.56;4907675;29;20048;-77
2022/08/24 09:59:05;;;;;;;8.20;3.63;;;;;;;28.97;47.43;101755.03;4908819;29;20104;-77
2022/08/24 10:02:00;;;;;;;8.57;3.70;;;;;;;29.26;47.93;101754.41;4891120;29;20043;-79
2022/08/24 10:04:44;;;;;;;10.43;4.35;;;;;;;29.53;47.08;101754.72;4909837;29;20480;-78
2022/08/24 10:07:21;;;;;;;7.80;4.32;;;;;;;29.79;46.04;101760.63;4914841;29;20039;-78
2022/08/24 10:10:09;;;;;;;10.55;5.05;;;;;;;29.99;46.33;101753.38;4882062;29;20038;-78
2022/08/24 10:12:52;;;;;;;8.65;4.53;;;;;;;30.07;44.74;101758.16;4903581;29;20036;-78
2022/08/24 10:15:58;;;;;;;10.68;4.60;;;;;;;30.01;44.65;101753.25;4898351;29;20040;-78
2022/08/24 10:18:44;;;;;;;12.68;4.20;;;;;;;30.17;44.97;101753.59;4845395;29;20057;-78
2022/08/24 10:21:42;;;;;;;8.05;4.07;;;;;;;30.39;45.84;101743.44;4887649;29;20503;-78
2022/08/24 10:24:43;;;;;;;8.18;3.40;;;;;;;30.59;44.58;101741.63;4915036;29;20044;-78
2022/08/24 10:27:20;;;;;;;8.85;3.28;;;;;;;30.63;43.53;101738.44;4913860;29;20484;-78
2022/08/24 10:30:15;;;;;;;12.25;3.72;;;;;;;30.73;41.87;101732.97;4898069;29;20032;-78
2022/08/24 10:32:55;;;;;;;5.80;2.58;;;;;;;30.76;41.66;101732.72;4866514;29;20048;-77
2022/08/24 10:35:33;;;;;;;5.88;2.70;;;;;;;30.60;40.99;101727.78;4882743;29;20047;-78
2022/08/24 10:41:53;;;;;;;3.65;2.05;;;;;;;30.30;42.67;101733.38;4879149;29;20036;-77
2022/08/24 10:44:36;;;;;;;3.15;1.35;;;;;;;30.39;41.63;101736.13;4899420;29;20060;-77
2022/08/24 10:47:33;;;;;;;9.20;1.88;;;;;;;30.42;41.93;101738.56;4901669;29;20044;-77
2022/08/24 10:50:29;;;;;;;3.25;1.60;;;;;;;30.25;42.39;101733.78;4895628;29;20078;-77
2022/08/24 10:53:13;;;;;;;3.53;1.52;;;;;;;30.14;41.87;101740.22;4896172;29;20059;-77
2022/08/24 10:55:39;;;;;;;3.90;1.50;;;;;;;29.88;40.00;101744.44;4918368;29;20036;-77
2022/08/24 10:58:28;;;;;;;5.10;1.23;;;;;;;29.79;42.83;101736.03;4918133;29;20465;-77
2022/08/24 11:00:54;;;;;;;1.90;1.02;;;;;;;29.60;41.27;101735.94;4901417;29;20114;-77
2022/08/24 11:03:22;;;;;;;4.80;1.40;;;;;;;29.41;41.23;101733.13;4901173;29;20175;-76
2022/08/24 11:05:54;;;;;;;2.33;1.52;;;;;;;29.35;42.33;101734.50;4918278;29;20095;-76
2022/08/24 11:08:30;;;;;;;7.38;1.70;;;;;;;29.32;43.33;101730.16;4900982;29;20043;-77
2022/08/24 11:11:07;;;;;;;4.40;1.80;;;;;;;29.33;42.77;101726.47;4918200;29;20040;-77
2022/08/24 11:13:35;;;;;;;4.10;1.50;;;;;;;29.52;41.73;101725.69;4885424;29;20047;-77
2022/08/24 11:16:02;;;;;;;3.67;1.63;;;;;;;29.97;41.68;101727.19;4918171;29;20115;-77
2022/08/24 11:18:48;;;;;;;3.05;1.70;;;;;;;30.33;41.81;101717.56;4900895;29;20115;-77
2022/08/24 11:21:37;;;;;;;4.35;1.70;;;;;;;30.93;40.45;101714.72;4907382;29;20043;-77
2022/08/24 11:24:12;;;;;;;4.75;1.80;;;;;;;31.11;39.26;101709.38;4898724;29;20055;-77
2022/08/24 11:27:04;;;;;;;4.10;1.63;;;;;;;31.16;39.96;101711.66;4918060;29;20067;-77
2022/08/24 11:29:48;;;;;;;4.43;1.80;;;;;;;31.35;37.62;101721.69;4871997;29;20056;-77
2022/08/24 11:32:26;;;;;;;4.88;2.10;;;;;;;31.37;37.91;101709.59;4887625;29;20068;-77
2022/08/24 11:34:51;;;;;;;3.95;1.50;;;;;;;31.33;39.16;101710.03;4913506;29;20051;-77
2022/08/24 11:37:22;;;;;;;2.95;1.90;;;;;;;31.40;39.20;101708.47;4889558;29;20044;-77
2022/08/24 11:39:47;;;;;;;8.18;1.73;;;;;;;31.57;38.30;101713.16;4917160;29;20159;-77
2022/08/24 11:42:28;;;;;;;4.97;2.00;;;;;;;31.51;38.33;101708.31;4885088;29;20515;-77
2022/08/24 11:45:11;;;;;;;3.40;1.60;;;;;;;31.55;38.30;101711.59;4904276;29;20032;-77
2022/08/24 11:47:51;;;;;;;3.08;1.80;;;;;;;31.62;39.36;101708.09;4900039;29;20032;-77
2022/08/24 11:50:23;;;;;;;4.25;2.00;;;;;;;31.66;38.03;101705.94;4883387;29;20055;-77